createdAt,value
2022-11-07T00:00:16.334Z,84.84
2022-11-07T00:02:46.759Z,84.63
2022-11-07T00:05:17.158Z,84.68
2022-11-07T00:07:47.393Z,84.70
2022-11-07T00:10:18.271Z,84.65
2022-11-07T00:12:48.478Z,84.88
2022-11-07T00:15:19.309Z,84.88
2022-11-07T00:17:49.599Z,84.37
2022-11-07T00:20:19.812Z,84.80
2022-11-07T00:22:50.684Z,84.59
2022-11-07T00:25:22.331Z,84.59
2022-11-07T00:27:52.574Z,85.04
2022-11-07T00:30:23.502Z,85.05
2022-11-07T00:33:00.001Z,84.85
2022-11-07T00:35:27.147Z,84.50
2022-11-07T00:37:57.481Z,84.92
2022-11-07T00:40:27.978Z,85.03
2022-11-07T00:42:58.028Z,84.83
2022-11-07T00:45:29.485Z,84.66
2022-11-07T00:47:59.609Z,84.88
2022-11-07T00:50:29.799Z,85.07
2022-11-07T00:52:59.951Z,85.08
2022-11-07T00:55:32.113Z,84.66
2022-11-07T00:58:03.349Z,84.66
2022-11-07T01:00:33.505Z,85.39
2022-11-07T01:03:03.838Z,85.02
2022-11-07T01:05:35.052Z,85.36
2022-11-07T01:08:05.922Z,85.15
2022-11-07T01:10:39.475Z,85.25
2022-11-07T01:13:10.164Z,85.10
2022-11-07T01:15:42.384Z,85.79
2022-11-07T01:18:12.836Z,85.79
2022-11-07T01:20:43.649Z,85.66
2022-11-07T01:23:14.375Z,85.73
2022-11-07T01:25:45.138Z,85.78
2022-11-07T01:28:15.417Z,85.78
2022-11-07T01:30:45.853Z,85.47
2022-11-07T01:33:17.046Z,85.62
2022-11-07T01:35:47.544Z,85.87
2022-11-07T01:38:18.092Z,85.87
2022-11-07T01:40:49.185Z,86.00
2022-11-07T01:43:19.678Z,85.64
2022-11-07T01:45:51.451Z,85.64
2022-11-07T01:48:21.787Z,85.62
2022-11-07T01:50:53.032Z,85.62
2022-11-07T01:53:23.397Z,86.33
2022-11-07T01:55:53.745Z,85.89
2022-11-07T01:58:24.060Z,85.07
2022-11-07T02:00:55.221Z,84.97
2022-11-07T02:03:26.676Z,84.78
2022-11-07T02:05:59.784Z,84.61
2022-11-07T02:08:33.113Z,84.72
2022-11-07T02:11:06.123Z,84.77
2022-11-07T02:13:38.035Z,84.58
2022-11-07T02:16:08.640Z,84.87
2022-11-07T02:18:41.640Z,84.87
2022-11-07T02:21:15.297Z,85.03
2022-11-07T02:23:48.986Z,84.97
2022-11-07T02:26:20.883Z,84.37
2022-11-07T02:28:55.116Z,84.65
2022-11-07T02:31:25.572Z,85.09
2022-11-07T02:33:56.190Z,84.90
2022-11-07T02:36:26.780Z,84.49
2022-11-07T02:39:00.162Z,84.49
2022-11-07T02:41:33.921Z,84.89
2022-11-07T02:44:07.086Z,85.81
2022-11-07T02:46:39.360Z,85.75
2022-11-07T02:49:10.002Z,85.21
2022-11-07T02:51:40.191Z,84.97
2022-11-07T02:54:11.111Z,84.98
2022-11-07T02:56:41.311Z,84.40
2022-11-07T02:59:11.590Z,84.70
2022-11-07T03:01:42.023Z,84.70
2022-11-07T03:04:12.392Z,84.72
2022-11-07T03:06:42.635Z,84.24
2022-11-07T03:09:13.491Z,84.24
2022-11-07T03:11:44.210Z,84.44
2022-11-07T03:14:15.257Z,85.18
2022-11-07T03:16:45.662Z,85.08
2022-11-07T03:19:16.709Z,85.08
2022-11-07T03:21:48.880Z,84.90
2022-11-07T03:24:19.254Z,84.72
2022-11-07T03:26:49.646Z,84.55
2022-11-07T03:29:21.120Z,84.48
2022-11-07T03:31:51.441Z,84.54
2022-11-07T03:34:21.639Z,84.54
2022-11-07T03:36:51.740Z,84.54
2022-11-07T03:39:25.647Z,84.23
2022-11-07T03:41:53.987Z,84.23
2022-11-07T03:44:24.234Z,84.27
2022-11-07T03:46:54.383Z,84.45
2022-11-07T03:49:26.199Z,84.45
2022-11-07T03:51:56.293Z,83.66
2022-11-07T03:54:26.492Z,83.69
2022-11-07T03:56:56.907Z,83.05
2022-11-07T03:59:27.562Z,83.05
2022-11-07T04:01:57.990Z,83.45
2022-11-07T04:04:28.393Z,83.84
2022-11-07T04:06:58.561Z,83.04
2022-11-07T04:09:28.998Z,83.34
2022-11-07T04:11:59.207Z,83.02
2022-11-07T04:14:29.423Z,83.10
2022-11-07T04:16:59.864Z,83.34
2022-11-07T04:19:30.801Z,83.34
2022-11-07T04:22:01.170Z,83.12
2022-11-07T04:24:31.680Z,83.12
2022-11-07T04:27:02.179Z,83.18
2022-11-07T04:29:32.696Z,83.25
2022-11-07T04:32:03.231Z,83.41
2022-11-07T04:34:33.561Z,82.67
2022-11-07T04:37:04.188Z,82.75
2022-11-07T04:39:35.076Z,82.75
2022-11-07T04:42:05.507Z,83.39
2022-11-07T04:44:36.087Z,84.22
2022-11-07T04:47:08.793Z,83.13
2022-11-07T04:49:39.810Z,82.73
2022-11-07T04:52:11.796Z,83.21
2022-11-07T04:54:43.562Z,82.70
2022-11-07T04:57:13.703Z,83.10
2022-11-07T04:59:44.055Z,82.81
2022-11-07T05:02:15.720Z,82.81
2022-11-07T05:04:46.656Z,82.31
2022-11-07T05:07:21.371Z,82.48
2022-11-07T05:09:51.745Z,82.48
2022-11-07T05:12:23.042Z,82.69
2022-11-07T05:14:53.296Z,82.67
2022-11-07T05:17:27.932Z,82.34
2022-11-07T05:19:56.866Z,82.34
2022-11-07T05:22:27.476Z,82.94
2022-11-07T05:24:58.644Z,83.03
2022-11-07T05:27:29.486Z,83.13
2022-11-07T05:30:00.696Z,83.13
2022-11-07T05:32:31.332Z,82.77
2022-11-07T05:35:01.666Z,83.76
2022-11-07T05:40:26.278Z,82.34
2022-11-07T05:43:01.780Z,83.34
2022-11-07T05:45:34.095Z,82.29
2022-11-07T05:48:13.210Z,81.86
2022-11-07T05:50:44.041Z,81.64
2022-11-07T05:53:15.867Z,81.64
2022-11-07T05:55:47.322Z,81.91
2022-11-07T05:58:17.482Z,81.91
2022-11-07T06:00:48.634Z,81.94
2022-11-07T06:03:19.808Z,81.93
2022-11-07T06:05:50.859Z,81.93
2022-11-07T06:08:21.686Z,82.04
2022-11-07T06:10:52.640Z,81.33
2022-11-07T06:13:23.263Z,80.17
2022-11-07T06:15:55.074Z,80.17
2022-11-07T06:18:25.840Z,79.95
2022-11-07T06:20:56.345Z,80.70
2022-11-07T06:23:26.832Z,80.78
2022-11-07T06:25:57.098Z,80.46
2022-11-07T06:28:27.387Z,79.89
2022-11-07T06:31:02.471Z,79.12
2022-11-07T06:33:33.358Z,78.69
2022-11-07T06:36:31.160Z,79.02
2022-11-07T06:39:01.685Z,78.85
2022-11-07T06:41:32.128Z,78.89
2022-11-07T06:44:02.564Z,79.58
2022-11-07T06:46:32.734Z,79.37
2022-11-07T06:49:03.615Z,80.12
2022-11-07T06:51:34.016Z,79.74
2022-11-07T06:54:04.466Z,80.00
2022-11-07T06:56:35.283Z,79.48
2022-11-07T06:59:05.989Z,79.81
2022-11-07T07:01:36.426Z,78.60
2022-11-07T07:04:08.761Z,79.02
2022-11-07T07:10:11.425Z,78.61
2022-11-07T07:12:43.879Z,79.35
2022-11-07T07:15:17.970Z,78.68
2022-11-07T07:17:49.723Z,77.85
2022-11-07T07:23:35.611Z,77.65
2022-11-07T07:26:18.088Z,77.89
2022-11-07T07:28:49.096Z,78.24
2022-11-07T07:34:46.576Z,76.86
2022-11-07T07:37:17.046Z,78.64
2022-11-07T07:46:09.535Z,77.89
2022-11-07T08:19:16.430Z,76.56
2022-11-07T08:21:48.431Z,78.00
2022-11-07T08:24:20.665Z,77.85
2022-11-07T08:26:54.623Z,77.26
2022-11-07T08:29:30.952Z,77.26
2022-11-07T08:32:01.798Z,76.30
2022-11-07T08:34:41.115Z,75.69
2022-11-07T08:37:14.081Z,75.69
2022-11-07T08:39:49.323Z,76.43
2022-11-07T08:42:27.204Z,76.45
2022-11-07T08:44:58.104Z,76.63
2022-11-07T08:47:34.246Z,77.89
2022-11-07T08:50:06.633Z,76.26
2022-11-07T08:52:37.571Z,76.26
2022-11-07T08:55:09.987Z,76.33
2022-11-07T08:58:16.475Z,76.33
2022-11-07T09:05:59.873Z,75.75
2022-11-07T09:08:30.293Z,75.67
2022-11-07T09:11:07.275Z,74.40
2022-11-07T09:13:38.567Z,74.62
2022-11-07T09:16:10.325Z,74.66
2022-11-07T09:18:47.629Z,74.81
2022-11-07T09:21:23.964Z,75.03
2022-11-07T09:23:55.625Z,74.70
2022-11-07T09:26:26.119Z,74.11
2022-11-07T09:29:00.929Z,75.53
2022-11-07T09:31:29.455Z,74.43
2022-11-07T09:34:01.393Z,74.88
2022-11-07T09:36:33.522Z,74.72
2022-11-07T09:42:18.493Z,74.47
2022-11-07T09:45:24.419Z,73.48
2022-11-07T09:48:16.471Z,73.48
2022-11-07T09:50:52.292Z,73.38
2022-11-07T09:53:39.130Z,71.50
2022-11-07T09:56:18.033Z,71.41
2022-11-07T09:58:54.908Z,71.41
2022-11-07T10:01:31.718Z,71.83
2022-11-07T10:04:24.323Z,72.39
2022-11-07T10:06:49.427Z,72.12
2022-11-07T10:14:06.393Z,73.00
2022-11-07T10:16:57.987Z,71.62
2022-11-07T10:19:31.282Z,72.06
2022-11-07T10:22:22.418Z,71.82
2022-11-07T10:25:01.754Z,71.82
2022-11-07T10:27:38.464Z,71.45
2022-11-07T10:30:18.186Z,71.30
2022-11-07T10:33:04.231Z,71.30
2022-11-07T10:35:37.936Z,72.60
2022-11-07T10:38:29.417Z,73.48
2022-11-07T10:41:08.421Z,71.88
2022-11-07T10:43:44.623Z,72.99
2022-11-07T10:46:29.332Z,70.24
2022-11-07T10:49:02.411Z,69.64
2022-11-07T10:51:53.286Z,71.33
2022-11-07T10:54:29.834Z,70.49
2022-11-07T10:57:11.929Z,70.97
2022-11-07T10:59:51.917Z,69.60
2022-11-07T11:02:34.288Z,67.77
2022-11-07T11:05:04.637Z,67.08
2022-11-07T11:07:41.229Z,67.08
2022-11-07T11:10:25.688Z,66.33
2022-11-07T11:13:02.261Z,67.82
2022-11-07T11:15:47.128Z,67.79
2022-11-07T11:18:19.317Z,67.82
2022-11-07T11:21:03.549Z,68.02
2022-11-07T11:23:41.438Z,66.62
2022-11-07T11:26:30.061Z,66.62
2022-11-07T11:29:06.609Z,65.65
2022-11-07T11:31:39.768Z,64.28
2022-11-07T11:34:44.160Z,63.29
2022-11-07T11:37:24.794Z,61.35
2022-11-07T11:40:01.875Z,60.61
2022-11-07T11:42:58.492Z,60.18
2022-11-07T11:45:33.338Z,61.23
2022-11-07T11:48:20.781Z,61.51
2022-11-07T11:51:17.807Z,59.35
2022-11-07T11:53:56.724Z,60.95
2022-11-07T11:56:40.222Z,61.80
2022-11-07T11:59:46.307Z,61.24
2022-11-07T12:02:53.975Z,62.01
2022-11-07T12:05:59.900Z,61.77
2022-11-07T12:08:52.179Z,64.66
2022-11-07T12:11:47.228Z,66.67
2022-11-07T12:15:06.775Z,66.67
2022-11-07T12:17:47.522Z,67.60
2022-11-07T12:20:51.895Z,70.15
2022-11-07T12:23:42.250Z,70.22
2022-11-07T12:29:37.970Z,72.05
2022-11-07T12:32:19.114Z,72.82
2022-11-07T12:35:12.331Z,72.82
2022-11-07T12:37:55.106Z,70.60
2022-11-07T12:40:43.537Z,70.71
2022-11-07T12:43:37.470Z,70.25
2022-11-07T12:46:12.385Z,71.41
2022-11-07T12:49:06.335Z,71.41
2022-11-07T12:51:58.699Z,72.15
2022-11-07T12:54:44.110Z,72.15
2022-11-07T12:57:17.300Z,72.79
2022-11-07T13:06:29.856Z,72.93
2022-11-07T13:18:58.666Z,74.50
2022-11-07T13:21:45.909Z,74.06
2022-11-07T13:24:21.827Z,74.06
2022-11-07T13:26:52.659Z,75.38
2022-11-07T13:29:26.158Z,75.35
2022-11-07T13:32:11.923Z,74.81
2022-11-07T13:35:04.375Z,74.82
2022-11-07T13:37:40.484Z,74.68
2022-11-07T13:40:29.202Z,74.34
2022-11-07T13:43:16.280Z,74.34
2022-11-07T13:45:59.287Z,74.97
2022-11-07T13:48:32.557Z,75.23
2022-11-07T13:51:11.682Z,75.48
2022-11-07T13:53:53.734Z,75.48
2022-11-07T13:56:39.290Z,76.32
2022-11-07T13:59:17.571Z,76.32
2022-11-07T14:01:52.657Z,76.33
2022-11-07T14:04:23.280Z,76.79
2022-11-07T14:06:59.444Z,76.79
2022-11-07T14:09:33.442Z,77.25
2022-11-07T14:12:04.754Z,77.25
2022-11-07T14:14:36.557Z,78.39
2022-11-07T14:17:08.950Z,79.12
2022-11-07T14:19:42.970Z,79.12
2022-11-07T14:22:24.599Z,78.85
2022-11-07T14:24:57.944Z,79.39
2022-11-07T14:27:30.404Z,79.66
2022-11-07T14:30:03.863Z,80.96
2022-11-07T14:37:02.199Z,81.09
2022-11-07T14:39:34.732Z,80.85
2022-11-07T14:42:26.309Z,81.30
2022-11-07T14:44:58.531Z,80.77
2022-11-07T14:47:37.153Z,81.05
2022-11-07T14:51:00.246Z,80.98
2022-11-07T14:53:17.226Z,80.91
2022-11-07T14:56:14.261Z,82.14
2022-11-07T14:58:51.940Z,82.14
2022-11-07T15:01:47.384Z,82.91
2022-11-07T15:04:31.930Z,83.17
2022-11-07T15:07:35.663Z,83.73
2022-11-07T15:10:32.447Z,83.66
2022-11-07T15:13:11.862Z,83.49
2022-11-07T15:15:45.780Z,83.42
2022-11-07T15:18:33.449Z,83.42
2022-11-07T15:21:09.613Z,83.64
2022-11-07T15:23:44.809Z,83.73
2022-11-07T15:26:24.641Z,83.75
2022-11-07T15:29:01.250Z,83.64
2022-11-07T15:31:36.301Z,83.84
2022-11-07T15:34:25.109Z,83.88
2022-11-07T15:39:44.460Z,84.25
2022-11-07T15:42:15.411Z,84.46
2022-11-07T15:44:47.042Z,84.32
2022-11-07T15:47:23.576Z,84.32
2022-11-07T15:50:02.304Z,84.92
2022-11-07T15:52:37.036Z,84.75
2022-11-07T15:55:25.188Z,84.63
2022-11-07T15:57:56.399Z,85.02
2022-11-07T16:00:27.543Z,84.93
2022-11-07T16:03:03.306Z,84.88
2022-11-07T16:05:33.931Z,84.93
2022-11-07T16:08:10.466Z,84.93
2022-11-07T16:10:46.868Z,85.11
2022-11-07T16:17:49.657Z,85.61
2022-11-07T16:23:05.244Z,85.69
2022-11-07T16:25:40.309Z,85.62
2022-11-07T16:28:32.065Z,85.62
2022-11-07T16:31:03.057Z,85.81
2022-11-07T16:33:35.749Z,86.27
2022-11-07T16:36:25.246Z,86.31
2022-11-07T16:39:04.371Z,86.65
2022-11-07T16:41:53.649Z,86.63
2022-11-07T16:44:32.974Z,86.73
2022-11-07T16:47:19.100Z,86.75
2022-11-07T16:49:54.954Z,86.99
2022-11-07T16:52:21.730Z,86.99
2022-11-07T16:54:58.057Z,86.99
2022-11-07T16:57:28.682Z,86.97
2022-11-07T17:00:00.867Z,86.97
2022-11-07T17:02:36.147Z,87.08
2022-11-07T17:05:11.914Z,87.26
2022-11-07T17:08:03.192Z,87.46
2022-11-07T17:10:37.071Z,87.84
2022-11-07T17:13:35.480Z,88.11
2022-11-07T17:16:01.213Z,88.15
2022-11-07T17:18:33.581Z,87.87
2022-11-07T17:21:05.930Z,87.84
2022-11-07T17:23:51.384Z,87.78
2022-11-07T17:26:35.111Z,87.78
2022-11-07T17:29:11.066Z,87.93
2022-11-07T17:35:29.977Z,88.07
2022-11-07T17:39:09.212Z,88.49
2022-11-07T17:43:33.847Z,88.33
2022-11-07T17:46:24.855Z,89.08
2022-11-07T17:48:59.514Z,89.11
2022-11-07T17:51:36.370Z,88.83
2022-11-07T17:54:42.316Z,88.93
2022-11-07T17:57:12.774Z,88.93
2022-11-07T18:00:05.581Z,89.30
2022-11-07T18:06:01.323Z,89.10
2022-11-07T18:08:51.733Z,89.18
2022-11-07T18:17:50.141Z,89.52
2022-11-07T18:23:06.892Z,90.07
2022-11-07T18:25:37.988Z,89.08
2022-11-07T18:28:12.747Z,89.00
2022-11-07T18:30:52.712Z,89.00
2022-11-07T18:36:42.923Z,88.76
2022-11-07T18:39:45.844Z,89.15
2022-11-07T18:42:18.681Z,89.38
2022-11-07T18:44:54.161Z,89.93
2022-11-07T18:47:24.788Z,90.08
2022-11-07T18:49:57.617Z,90.13
2022-11-07T18:52:29.623Z,90.13
2022-11-07T18:55:01.607Z,90.40
2022-11-07T18:57:33.463Z,90.40
2022-11-07T19:00:13.748Z,90.17
2022-11-07T19:02:56.259Z,90.41
2022-11-07T19:08:57.403Z,90.59
2022-11-07T19:11:50.592Z,90.44
2022-11-07T19:14:40.766Z,90.44
2022-11-07T19:17:12.532Z,90.67
2022-11-07T19:19:48.777Z,90.51
2022-11-07T19:22:20.429Z,90.76
2022-11-07T19:24:52.348Z,90.41
2022-11-07T19:27:24.409Z,90.33
2022-11-07T19:29:57.416Z,90.21
2022-11-07T19:32:30.122Z,90.59
2022-11-07T19:35:00.673Z,90.52
2022-11-07T19:37:31.580Z,90.52
2022-11-07T19:40:03.316Z,90.74
2022-11-07T19:42:36.441Z,90.59
2022-11-07T19:45:08.588Z,90.29
2022-11-07T19:47:39.856Z,90.29
2022-11-07T19:50:10.400Z,89.42
2022-11-07T19:52:45.611Z,89.42
2022-11-07T19:55:20.469Z,88.52
2022-11-07T19:57:51.796Z,88.34
2022-11-07T20:00:23.380Z,88.01
2022-11-07T20:02:54.514Z,88.34
2022-11-07T20:05:25.744Z,88.34
2022-11-07T20:08:02.177Z,88.84
2022-11-07T20:10:30.218Z,88.93
2022-11-07T20:13:05.139Z,89.17
2022-11-07T20:15:38.864Z,89.11
2022-11-07T20:18:12.342Z,89.28
2022-11-07T20:20:44.214Z,89.28
2022-11-07T20:23:23.726Z,88.98
2022-11-07T20:25:55.650Z,88.81
2022-11-07T20:28:27.924Z,88.67
2022-11-07T20:31:03.787Z,89.03
2022-11-07T20:33:35.990Z,89.25
2022-11-07T20:40:08.538Z,89.60
2022-11-07T20:41:55.407Z,89.60
2022-11-07T20:44:29.841Z,89.55
2022-11-07T20:47:02.337Z,89.42
2022-11-07T20:49:34.357Z,89.62
2022-11-07T20:52:10.579Z,88.91
2022-11-07T20:54:40.559Z,88.36
2022-11-07T20:57:10.955Z,88.36
2022-11-07T20:59:56.190Z,88.06
2022-11-07T21:02:24.265Z,88.18
2022-11-07T21:05:16.828Z,87.85
2022-11-07T21:07:29.433Z,88.03
2022-11-07T21:10:05.560Z,88.03
2022-11-07T21:12:36.579Z,88.91
2022-11-07T21:15:08.272Z,89.30
2022-11-07T21:17:49.882Z,89.67
2022-11-07T21:20:20.806Z,90.28
2022-11-07T21:22:51.299Z,90.21
2022-11-07T21:25:21.909Z,90.38
2022-11-07T21:27:52.123Z,90.38
2022-11-07T21:30:23.729Z,90.63
2022-11-07T21:32:56.631Z,91.00
2022-11-07T21:35:32.446Z,91.00
2022-11-07T21:38:01.549Z,90.87
2022-11-07T21:40:34.568Z,91.27
2022-11-07T21:43:05.686Z,91.43
2022-11-07T21:45:38.622Z,91.52
2022-11-07T21:48:10.798Z,91.81
2022-11-07T21:50:45.761Z,91.81
2022-11-07T21:53:16.586Z,91.34
2022-11-07T21:55:49.374Z,91.34
2022-11-07T21:58:19.723Z,91.12
2022-11-07T22:00:50.808Z,91.06
2022-11-07T22:03:32.052Z,91.06
2022-11-07T22:05:52.991Z,91.21
2022-11-07T22:08:24.000Z,91.04
2022-11-07T22:10:54.318Z,91.04
2022-11-07T22:13:24.914Z,91.38
2022-11-07T22:16:16.118Z,91.41
2022-11-07T22:18:48.333Z,91.41
2022-11-07T22:21:23.324Z,91.91
2022-11-07T22:23:53.826Z,91.99
2022-11-07T22:26:28.934Z,92.05
2022-11-07T22:29:08.533Z,92.05
2022-11-07T22:32:00.868Z,91.93
2022-11-07T22:34:35.999Z,91.97
2022-11-07T22:37:09.896Z,92.20
2022-11-07T22:39:44.625Z,92.27
2022-11-07T22:42:19.675Z,92.27
2022-11-07T22:44:47.989Z,92.10
2022-11-07T22:47:18.864Z,92.15
2022-11-07T22:49:49.755Z,92.43
2022-11-07T22:52:21.444Z,92.43
2022-11-07T22:54:51.604Z,92.48
2022-11-07T22:57:21.912Z,92.38
2022-11-07T22:59:54.011Z,92.38
2022-11-07T23:02:24.472Z,92.12
2022-11-07T23:04:57.289Z,92.12
2022-11-07T23:07:27.487Z,92.26
2022-11-07T23:10:00.702Z,92.26
2022-11-07T23:12:30.115Z,92.61
2022-11-07T23:15:02.719Z,92.75
2022-11-07T23:17:33.219Z,92.58
2022-11-07T23:20:04.913Z,92.72
2022-11-07T23:22:41.605Z,92.76
2022-11-07T23:25:11.818Z,92.66
2022-11-07T23:27:42.139Z,92.57
2022-11-07T23:30:14.399Z,92.61
2022-11-07T23:32:44.543Z,92.86
2022-11-07T23:35:15.403Z,92.86
2022-11-07T23:37:45.849Z,92.83
2022-11-07T23:40:16.216Z,92.67
2022-11-07T23:42:46.520Z,92.54
2022-11-07T23:45:16.757Z,92.84
2022-11-07T23:47:46.897Z,92.76
2022-11-07T23:50:20.440Z,92.76
2022-11-07T23:52:50.872Z,92.68
2022-11-07T23:55:23.807Z,93.18
2022-11-07T23:57:54.237Z,93.48
